createdAt,value
2023-03-29T04:06:32.552Z,101942.59
2023-03-29T04:09:18.734Z,101947.69
2023-03-29T04:11:53.215Z,101945.13
2023-03-29T04:14:21.594Z,101947.41
2023-03-29T04:17:06.539Z,101952.34
2023-03-29T04:19:47.066Z,101963.50
2023-03-29T04:22:14.644Z,101963.94
2023-03-29T04:24:43.126Z,101964.66
2023-03-29T04:27:29.636Z,101961.63
2023-03-29T04:29:58.717Z,101973.34
2023-03-29T04:32:46.207Z,101988.03
2023-03-29T04:35:13.678Z,101981.28
2023-03-29T04:37:41.979Z,101990.19
2023-03-29T04:40:14.527Z,101981.31
2023-03-29T04:42:54.463Z,101982.25
2023-03-29T04:45:22.151Z,101972.63
2023-03-29T04:48:06.049Z,101978.56
2023-03-29T04:50:36.517Z,101999.00
2023-03-29T04:53:04.244Z,102005.66
2023-03-29T04:55:32.200Z,101990.19
2023-03-29T04:58:02.739Z,101986.53
2023-03-29T05:00:33.330Z,101991.13
2023-03-29T05:03:04.523Z,102002.59
2023-03-29T05:05:35.366Z,102014.66
2023-03-29T05:08:04.697Z,102003.78
2023-03-29T05:10:43.512Z,101998.75
2023-03-29T05:13:12.329Z,101995.53
2023-03-29T05:15:42.087Z,101998.91
2023-03-29T05:18:10.729Z,101997.50
2023-03-29T05:20:40.555Z,101988.97
2023-03-29T05:23:09.746Z,101993.28
2023-03-29T05:26:08.093Z,102008.94
2023-03-29T05:28:36.613Z,102014.78
2023-03-29T05:31:06.031Z,101994.13
2023-03-29T05:33:36.560Z,101992.00
2023-03-29T05:36:08.631Z,101997.25
2023-03-29T05:38:41.394Z,102001.69
2023-03-29T05:41:08.974Z,102006.97
2023-03-29T05:43:54.563Z,101994.94
2023-03-29T05:46:25.353Z,102001.09
2023-03-29T05:48:55.482Z,101996.25
2023-03-29T05:51:33.400Z,101999.09
2023-03-29T05:54:01.526Z,102004.66
2023-03-29T05:56:29.214Z,102000.81
2023-03-29T05:58:57.023Z,102004.06
2023-03-29T06:01:25.894Z,101995.97
2023-03-29T06:04:01.748Z,101997.69
2023-03-29T06:06:37.931Z,102012.22
2023-03-29T06:09:05.433Z,101998.59
2023-03-29T06:11:56.436Z,102003.63
2023-03-29T06:14:37.357Z,102012.97
2023-03-29T06:17:19.063Z,102007.31
2023-03-29T06:19:47.646Z,102008.94
2023-03-29T06:22:17.109Z,101999.81
2023-03-29T06:24:44.890Z,102009.56
2023-03-29T06:27:23.496Z,102008.88
2023-03-29T06:29:51.625Z,102005.56
2023-03-29T06:32:19.944Z,102003.53
2023-03-29T06:34:56.552Z,102008.25
2023-03-29T06:37:40.639Z,102009.41
2023-03-29T06:40:21.450Z,102013.47
2023-03-29T06:42:49.276Z,102018.88
2023-03-29T06:45:38.651Z,102016.16
2023-03-29T06:48:12.562Z,102020.50
2023-03-29T06:50:41.974Z,102030.72
2023-03-29T06:53:15.746Z,102045.41
2023-03-29T06:55:45.871Z,102042.66
2023-03-29T06:58:31.800Z,102047.78
2023-03-29T07:01:07.046Z,102050.13
2023-03-29T07:03:55.664Z,102049.09
2023-03-29T07:06:31.353Z,102049.03
2023-03-29T07:09:01.810Z,102049.22
2023-03-29T07:11:59.781Z,102051.25
2023-03-29T07:14:30.045Z,102056.91
2023-03-29T07:16:58.602Z,102058.53
2023-03-29T07:19:34.166Z,102061.72
2023-03-29T07:22:08.186Z,102048.13
2023-03-29T07:24:45.753Z,102053.16
2023-03-29T07:27:13.405Z,102047.19
2023-03-29T07:29:40.864Z,102049.06
2023-03-29T07:32:08.818Z,102042.22
2023-03-29T07:34:42.476Z,102054.16
2023-03-29T07:37:16.384Z,102049.00
2023-03-29T07:39:45.880Z,102056.44
2023-03-29T07:42:30.430Z,102052.16
2023-03-29T07:44:59.911Z,102061.81
2023-03-29T07:47:33.541Z,102056.13
2023-03-29T07:50:02.234Z,102066.84
2023-03-29T07:52:30.358Z,102082.41
2023-03-29T07:54:59.055Z,102088.72
2023-03-29T07:57:44.559Z,102063.94
2023-03-29T08:00:16.985Z,102056.34
2023-03-29T08:02:54.941Z,102058.53
2023-03-29T08:05:37.887Z,102048.78
2023-03-29T08:08:12.416Z,102043.94
2023-03-29T08:10:57.352Z,102039.72
2023-03-29T08:13:43.881Z,102050.75
2023-03-29T08:16:26.910Z,102056.06
2023-03-29T08:19:05.039Z,102061.50
2023-03-29T08:22:02.756Z,102050.13
2023-03-29T08:24:43.267Z,102052.75
2023-03-29T08:27:11.281Z,102052.13
2023-03-29T08:29:38.843Z,102046.91
2023-03-29T08:32:07.071Z,102045.31
2023-03-29T08:34:35.603Z,102045.88
2023-03-29T08:37:18.418Z,102046.03
2023-03-29T08:39:48.919Z,102045.25
2023-03-29T08:43:02.029Z,102045.72
2023-03-29T08:46:01.681Z,102050.97
2023-03-29T08:49:05.513Z,102050.44
2023-03-29T08:51:40.741Z,102045.25
2023-03-29T08:54:12.803Z,102046.53
2023-03-29T08:57:17.061Z,102044.25
2023-03-29T08:59:52.369Z,102041.69
2023-03-29T09:02:27.338Z,102045.53
2023-03-29T09:05:18.551Z,102048.38
2023-03-29T09:07:56.124Z,102045.47
2023-03-29T09:10:42.420Z,102050.72
2023-03-29T09:13:49.525Z,102055.38
2023-03-29T09:16:26.595Z,102051.81
2023-03-29T09:19:22.521Z,102043.91
2023-03-29T09:21:50.662Z,102047.22
2023-03-29T09:24:44.449Z,102054.38
2023-03-29T09:27:32.399Z,102047.13
2023-03-29T09:30:19.267Z,102046.09
2023-03-29T09:32:57.448Z,102041.25
2023-03-29T09:36:03.207Z,102039.84
2023-03-29T09:38:33.120Z,102036.16
2023-03-29T09:41:21.590Z,102037.91
2023-03-29T09:43:52.260Z,102040.31
2023-03-29T09:46:36.372Z,102035.06
2023-03-29T09:49:10.300Z,102040.31
2023-03-29T09:51:39.205Z,102038.44
2023-03-29T09:54:06.879Z,102032.34
2023-03-29T09:56:49.963Z,102026.22
2023-03-29T09:59:21.283Z,102027.53
2023-03-29T10:01:48.846Z,102037.81
2023-03-29T10:04:17.548Z,102032.53
2023-03-29T10:06:52.640Z,102013.34
2023-03-29T10:09:23.005Z,102020.97
2023-03-29T10:11:57.150Z,102018.72
2023-03-29T10:14:31.021Z,101996.06
2023-03-29T10:16:59.135Z,101992.19
2023-03-29T10:19:34.455Z,101992.28
2023-03-29T10:22:05.579Z,101998.34
2023-03-29T10:24:33.581Z,101996.84
2023-03-29T10:27:04.552Z,101988.78
2023-03-29T10:29:38.911Z,101981.38
2023-03-29T10:32:16.435Z,101981.38
2023-03-29T10:34:46.891Z,101979.09
2023-03-29T10:37:19.327Z,101978.34
2023-03-29T10:39:48.835Z,101973.72
2023-03-29T10:42:18.996Z,101984.38
2023-03-29T10:44:55.389Z,101981.47
2023-03-29T10:47:23.561Z,101981.94
2023-03-29T10:49:57.272Z,101974.09
2023-03-29T10:52:26.159Z,101966.66
2023-03-29T10:54:56.289Z,101972.06
2023-03-29T10:57:45.671Z,101958.47
2023-03-29T11:00:34.284Z,101961.09
2023-03-29T11:03:29.396Z,101948.03
2023-03-29T11:06:12.727Z,101953.19
2023-03-29T11:09:01.639Z,101946.91
2023-03-29T11:11:44.485Z,101941.34
2023-03-29T11:14:41.364Z,101938.19
2023-03-29T11:17:28.951Z,101928.72
2023-03-29T11:20:08.541Z,101929.97
2023-03-29T11:22:45.137Z,101932.53
2023-03-29T11:25:34.682Z,101939.34
2023-03-29T11:28:19.753Z,101922.16
2023-03-29T11:31:12.358Z,101917.88
2023-03-29T11:34:15.674Z,101919.81
2023-03-29T11:36:55.473Z,101923.53
2023-03-29T11:40:00.313Z,101913.69
2023-03-29T11:42:32.218Z,101903.56
2023-03-29T11:45:02.477Z,101899.88
2023-03-29T11:47:36.589Z,101900.72
2023-03-29T11:50:23.118Z,101894.69
2023-03-29T11:52:59.226Z,101898.00
2023-03-29T11:55:39.293Z,101894.03
2023-03-29T11:58:22.413Z,101897.22
2023-03-29T12:01:16.389Z,101887.28
2023-03-29T12:03:53.262Z,101892.34
2023-03-29T12:06:38.410Z,101883.97
2023-03-29T12:09:14.216Z,101884.31
2023-03-29T12:11:52.851Z,101881.22
2023-03-29T12:15:01.506Z,101870.53
2023-03-29T12:17:38.944Z,101866.97
2023-03-29T12:20:26.760Z,101863.16
2023-03-29T12:22:56.144Z,101862.94
2023-03-29T12:25:41.242Z,101852.03
2023-03-29T12:28:23.949Z,101840.31
2023-03-29T12:31:04.444Z,101840.50
2023-03-29T12:33:43.926Z,101835.28
2023-03-29T12:36:36.315Z,101849.28
2023-03-29T12:39:29.190Z,101829.31
2023-03-29T12:42:21.712Z,101830.94
2023-03-29T12:45:32.557Z,101817.88
2023-03-29T12:48:01.353Z,101827.00
2023-03-29T12:50:28.973Z,101816.44
2023-03-29T12:53:23.476Z,101816.28
2023-03-29T12:56:03.036Z,101818.78
2023-03-29T12:58:40.266Z,101817.88
2023-03-29T13:01:24.735Z,101807.34
2023-03-29T13:04:01.499Z,101810.34
2023-03-29T13:06:56.217Z,101812.66
2023-03-29T13:09:29.910Z,101807.56
2023-03-29T13:12:05.100Z,101808.09
2023-03-29T13:14:37.404Z,101801.81
2023-03-29T13:17:18.308Z,101813.72
2023-03-29T13:20:15.668Z,101788.09
2023-03-29T13:23:20.626Z,101802.66
2023-03-29T13:26:16.891Z,101796.16
2023-03-29T13:29:05.276Z,101790.31
2023-03-29T13:31:52.252Z,101779.31
2023-03-29T13:34:25.589Z,101783.59
2023-03-29T13:37:01.525Z,101769.97
2023-03-29T13:39:31.931Z,101773.16
2023-03-29T13:42:35.315Z,101768.47
2023-03-29T13:45:17.321Z,101771.50
2023-03-29T13:47:54.877Z,101771.16
2023-03-29T13:50:39.360Z,101761.97
2023-03-29T13:53:15.606Z,101760.31
2023-03-29T13:55:51.637Z,101750.63
2023-03-29T13:58:52.416Z,101754.63
2023-03-29T14:01:23.212Z,101752.31
2023-03-29T14:03:52.872Z,101758.31
2023-03-29T14:06:33.632Z,101760.66
2023-03-29T14:09:06.411Z,101754.66
2023-03-29T14:11:34.471Z,101746.56
2023-03-29T14:14:08.512Z,101749.16
2023-03-29T14:16:39.667Z,101704.97
2023-03-29T14:19:17.452Z,101607.28
2023-03-29T14:21:45.485Z,101631.66
2023-03-29T14:24:26.030Z,101632.22
2023-03-29T14:26:55.167Z,101629.94
2023-03-29T14:29:25.392Z,101633.72
2023-03-29T14:31:53.077Z,101650.91
2023-03-29T14:34:20.653Z,101654.53
2023-03-29T14:36:49.384Z,101653.22
2023-03-29T14:39:20.404Z,101686.91
2023-03-29T14:41:53.234Z,101687.47
2023-03-29T14:44:24.625Z,101694.41
2023-03-29T14:46:52.400Z,101725.34
2023-03-29T14:49:22.931Z,101725.13
2023-03-29T14:51:52.212Z,101742.69
2023-03-29T14:54:27.553Z,101729.19
2023-03-29T14:56:55.888Z,101732.28
2023-03-29T14:59:28.125Z,101728.19
2023-03-29T15:01:56.505Z,101733.44
2023-03-29T15:04:24.622Z,101739.84
2023-03-29T15:06:52.879Z,101719.34
2023-03-29T15:09:27.056Z,101721.81
2023-03-29T15:11:57.318Z,101709.28
2023-03-29T15:14:28.392Z,101708.00
2023-03-29T15:17:02.152Z,101714.50
2023-03-29T15:19:29.539Z,101715.44
2023-03-29T15:21:58.405Z,101712.44
2023-03-29T15:24:31.580Z,101700.81
2023-03-29T15:27:14.629Z,101694.22
2023-03-29T15:29:43.261Z,101686.66
2023-03-29T15:32:23.290Z,101683.72
2023-03-29T15:35:01.988Z,101678.91
2023-03-29T15:37:29.444Z,101673.63
2023-03-29T15:39:57.482Z,101681.97
2023-03-29T15:42:25.662Z,101671.72
2023-03-29T15:44:56.634Z,101681.31
2023-03-29T15:47:24.413Z,101673.63
2023-03-29T15:49:51.834Z,101666.25
2023-03-29T15:52:19.855Z,101668.88
2023-03-29T15:54:47.183Z,101651.34
2023-03-29T15:57:16.198Z,101650.97
2023-03-29T15:59:44.757Z,101675.22
2023-03-29T16:02:16.743Z,101675.09
2023-03-29T16:04:44.616Z,101668.06
2023-03-29T16:07:14.900Z,101667.19
2023-03-29T16:09:42.910Z,101657.13
2023-03-29T16:12:10.536Z,101669.75
2023-03-29T16:14:38.437Z,101676.84
2023-03-29T16:17:06.265Z,101670.56
2023-03-29T16:19:33.849Z,101667.03
2023-03-29T16:22:05.080Z,101670.00
2023-03-29T16:24:34.963Z,101658.19
2023-03-29T16:27:03.802Z,101676.22
2023-03-29T16:29:32.080Z,101670.25
2023-03-29T16:31:59.878Z,101663.22
2023-03-29T16:34:28.313Z,101669.59
2023-03-29T16:36:56.125Z,101675.31
2023-03-29T16:39:23.607Z,101675.84
2023-03-29T16:41:51.395Z,101681.16
2023-03-29T16:44:23.858Z,101677.31
2023-03-29T16:46:57.816Z,101674.91
2023-03-29T16:49:25.670Z,101684.59
2023-03-29T16:51:53.149Z,101688.50
2023-03-29T16:54:20.654Z,101697.91
2023-03-29T16:56:48.257Z,101691.63
2023-03-29T16:59:15.661Z,101691.72
2023-03-29T17:01:43.170Z,101683.97
2023-03-29T17:04:11.557Z,101682.56
2023-03-29T17:06:38.953Z,101683.53
2023-03-29T17:09:07.324Z,101686.28
2023-03-29T17:11:35.997Z,101695.56
2023-03-29T17:14:04.026Z,101699.94
2023-03-29T17:16:32.270Z,101701.47
2023-03-29T17:19:00.505Z,101700.47
2023-03-29T17:21:29.633Z,101711.94
2023-03-29T17:23:57.068Z,101695.66
2023-03-29T17:26:24.418Z,101711.47
2023-03-29T17:28:52.259Z,101698.47
2023-03-29T17:31:19.922Z,101699.88
2023-03-29T17:33:47.645Z,101707.88
2023-03-29T17:36:15.815Z,101713.47
2023-03-29T17:38:43.322Z,101718.56
2023-03-29T17:41:11.378Z,101717.03
2023-03-29T17:43:39.117Z,101701.88
2023-03-29T17:46:06.844Z,101708.84
2023-03-29T17:48:35.071Z,101714.97
2023-03-29T17:51:02.562Z,101725.19
2023-03-29T17:53:30.029Z,101731.53
2023-03-29T17:55:57.469Z,101729.63
2023-03-29T17:58:24.875Z,101732.59
2023-03-29T18:00:52.236Z,101736.00
2023-03-29T18:03:19.800Z,101746.97
2023-03-29T18:05:48.200Z,101748.88
2023-03-29T18:08:16.852Z,101761.09
2023-03-29T18:10:44.358Z,101763.41
2023-03-29T18:13:13.978Z,101767.19
2023-03-29T18:15:42.438Z,101767.59
2023-03-29T18:18:11.210Z,101770.56
2023-03-29T18:20:39.164Z,101774.59
2023-03-29T18:23:06.655Z,101777.69
2023-03-29T18:25:34.613Z,101776.72
2023-03-29T18:28:02.008Z,101785.31
2023-03-29T18:30:30.529Z,101784.53
2023-03-29T18:32:58.951Z,101786.94
2023-03-29T18:35:27.339Z,101781.00
2023-03-29T18:37:55.061Z,101786.25
2023-03-29T18:40:26.232Z,101780.16
2023-03-29T18:42:53.772Z,101778.44
2023-03-29T18:45:22.221Z,101773.22
2023-03-29T18:47:50.685Z,101777.00
2023-03-29T18:50:18.850Z,101789.63
2023-03-29T18:52:46.218Z,101790.66
2023-03-29T18:55:13.992Z,101794.19
2023-03-29T18:57:41.794Z,101799.63
2023-03-29T19:00:12.342Z,101804.06
2023-03-29T19:02:40.777Z,101810.41
2023-03-29T19:05:10.840Z,101811.47
2023-03-29T19:07:38.834Z,101819.84
2023-03-29T19:10:08.367Z,101816.63
2023-03-29T19:12:36.356Z,101816.78
2023-03-29T19:15:04.091Z,101820.34
2023-03-29T19:17:31.659Z,101824.69
2023-03-29T19:19:59.440Z,101824.50
2023-03-29T19:22:26.820Z,101827.03
2023-03-29T19:24:54.708Z,101834.22
2023-03-29T19:27:22.375Z,101829.38
2023-03-29T19:29:49.810Z,101835.13
2023-03-29T19:32:17.688Z,101831.78
2023-03-29T19:34:45.055Z,101829.94
2023-03-29T19:37:13.072Z,101825.19
2023-03-29T19:39:41.466Z,101830.81
2023-03-29T19:42:09.360Z,101830.16
2023-03-29T19:44:38.326Z,101836.13
2023-03-29T19:47:06.042Z,101841.25
2023-03-29T19:49:39.429Z,101839.69
2023-03-29T19:52:07.656Z,101852.09
2023-03-29T19:54:35.306Z,101855.72
2023-03-29T19:57:04.089Z,101846.91
2023-03-29T19:59:32.526Z,101841.91
2023-03-29T20:02:02.208Z,101851.50
2023-03-29T20:04:29.689Z,101854.69
2023-03-29T20:06:57.671Z,101850.00
2023-03-29T20:09:25.304Z,101859.91
2023-03-29T20:11:53.708Z,101862.94
2023-03-29T20:14:21.644Z,101872.22
2023-03-29T20:16:50.615Z,101861.72
2023-03-29T20:19:18.809Z,101862.91
2023-03-29T20:21:46.197Z,101871.22
2023-03-29T20:24:13.511Z,101873.50
2023-03-29T20:26:41.072Z,101874.72
2023-03-29T20:29:08.899Z,101871.72
2023-03-29T20:31:36.402Z,101877.00
2023-03-29T20:34:03.929Z,101878.19
2023-03-29T20:36:31.986Z,101876.44
2023-03-29T20:39:00.267Z,101876.28
2023-03-29T20:41:28.143Z,101872.88
2023-03-29T20:43:59.892Z,101866.81
2023-03-29T20:46:33.285Z,101862.09
2023-03-29T20:49:03.389Z,101864.06
2023-03-29T20:51:32.101Z,101865.63
2023-03-29T20:54:04.717Z,101864.91
2023-03-29T20:56:34.842Z,101873.41
2023-03-29T20:59:03.996Z,101868.22
2023-03-29T21:01:32.512Z,101865.44
2023-03-29T21:04:00.015Z,101871.16
2023-03-29T21:06:27.515Z,101869.53
2023-03-29T21:08:54.881Z,101870.75
2023-03-29T21:11:22.230Z,101875.47
2023-03-29T21:13:50.272Z,101877.94
2023-03-29T21:16:18.407Z,101878.00
2023-03-29T21:18:45.975Z,101877.47
2023-03-29T21:21:13.725Z,101882.16
2023-03-29T21:23:41.243Z,101876.31
2023-03-29T21:26:08.742Z,101871.28
2023-03-29T21:28:37.588Z,101868.41
2023-03-29T21:31:06.156Z,101874.06
2023-03-29T21:33:35.165Z,101881.22
2023-03-29T21:36:02.743Z,101886.13
2023-03-29T21:38:30.702Z,101890.13
2023-03-29T21:41:00.279Z,101883.31
2023-03-29T21:43:28.873Z,101883.16
2023-03-29T21:45:57.659Z,101878.06
2023-03-29T21:48:25.119Z,101873.63
2023-03-29T21:50:52.956Z,101870.13
2023-03-29T21:53:20.390Z,101874.38
2023-03-29T21:55:52.317Z,101873.31
2023-03-29T21:58:20.255Z,101878.94
2023-03-29T22:00:48.137Z,101879.75
2023-03-29T22:03:17.060Z,101880.34
2023-03-29T22:05:58.906Z,101879.47
2023-03-29T22:08:26.820Z,101885.31
2023-03-29T22:10:56.848Z,101887.91
2023-03-29T22:13:27.021Z,101893.13
2023-03-29T22:16:01.025Z,101888.88
2023-03-29T22:18:43.555Z,101888.56
2023-03-29T22:21:15.936Z,101882.13
2023-03-29T22:23:46.375Z,101881.75
2023-03-29T22:26:16.183Z,101872.13
2023-03-29T22:28:43.616Z,101873.78
2023-03-29T22:31:14.278Z,101877.03
2023-03-29T22:33:42.219Z,101882.28
2023-03-29T22:36:27.982Z,101895.69
2023-03-29T22:38:56.521Z,101890.53
2023-03-29T22:41:26.057Z,101889.41
2023-03-29T22:43:55.990Z,101882.41
2023-03-29T22:46:24.515Z,101884.06
2023-03-29T22:48:52.456Z,101899.81
2023-03-29T22:51:20.376Z,101906.16
2023-03-29T22:53:47.789Z,101904.13
2023-03-29T22:56:16.563Z,101903.25
2023-03-29T22:58:44.448Z,101900.50
2023-03-29T23:01:12.934Z,101895.78
2023-03-29T23:03:41.016Z,101891.44
2023-03-29T23:06:08.418Z,101895.81
2023-03-29T23:08:36.300Z,101889.91
2023-03-29T23:11:04.536Z,101890.09
2023-03-29T23:13:33.641Z,101881.41
2023-03-29T23:16:03.665Z,101895.59
2023-03-29T23:18:34.915Z,101900.09
2023-03-29T23:21:05.596Z,101901.41
2023-03-29T23:23:33.915Z,101904.94
2023-03-29T23:26:01.973Z,101902.03
2023-03-29T23:28:34.544Z,101900.13
2023-03-29T23:31:06.998Z,101908.28
2023-03-29T23:33:36.340Z,101898.31
2023-03-29T23:36:06.123Z,101904.53
2023-03-29T23:38:36.179Z,101910.22
2023-03-29T23:41:06.515Z,101906.13
2023-03-29T23:43:37.307Z,101907.19
2023-03-29T23:46:07.098Z,101911.34
2023-03-29T23:48:34.845Z,101905.25
2023-03-29T23:51:03.184Z,101910.03
2023-03-29T23:53:32.114Z,101899.97
2023-03-29T23:56:01.651Z,101898.53
2023-03-29T23:58:31.223Z,101895.81
